sensor_id;sensor_type;location;lat;lon;timestamp;P1;durP1;ratioP1;P2;durP2;ratioP2
46875;SDS011;32866;50.160;14.768;2023-08-07T00:04:37;0.15;;;0.15;;
46875;SDS011;32866;50.160;14.768;2023-08-07T00:09:30;0.95;;;0.20;;
46875;SDS011;32866;50.160;14.768;2023-08-07T00:11:56;0.10;;;0.10;;
46875;SDS011;32866;50.160;14.768;2023-08-07T00:14:22;0.10;;;0.10;;
46875;SDS011;32866;50.160;14.768;2023-08-07T00:16:48;1.10;;;0.38;;
46875;SDS011;32866;50.160;14.768;2023-08-07T00:19:14;0.17;;;0.17;;
46875;SDS011;32866;50.160;14.768;2023-08-07T00:21:40;0.10;;;0.10;;
46875;SDS011;32866;50.160;14.768;2023-08-07T00:24:07;0.20;;;0.20;;
46875;SDS011;32866;50.160;14.768;2023-08-07T00:26:33;1.45;;;0.10;;
46875;SDS011;32866;50.160;14.768;2023-08-07T00:28:59;0.82;;;0.20;;
46875;SDS011;32866;50.160;14.768;2023-08-07T00:31:25;0.22;;;0.22;;
46875;SDS011;32866;50.160;14.768;2023-08-07T00:36:19;17.17;;;0.95;;
46875;SDS011;32866;50.160;14.768;2023-08-07T00:38:45;0.22;;;0.22;;
46875;SDS011;32866;50.160;14.768;2023-08-07T00:41:11;0.30;;;0.30;;
46875;SDS011;32866;50.160;14.768;2023-08-07T00:43:37;0.22;;;0.10;;
46875;SDS011;32866;50.160;14.768;2023-08-07T00:46:03;0.22;;;0.22;;
46875;SDS011;32866;50.160;14.768;2023-08-07T00:48:29;0.13;;;0.13;;
46875;SDS011;32866;50.160;14.768;2023-08-07T00:50:57;0.08;;;0.08;;
46875;SDS011;32866;50.160;14.768;2023-08-07T00:53:23;0.17;;;0.17;;
46875;SDS011;32866;50.160;14.768;2023-08-07T00:58:15;3.20;;;0.20;;
46875;SDS011;32866;50.160;14.768;2023-08-07T01:00:42;0.10;;;0.10;;
46875;SDS011;32866;50.160;14.768;2023-08-07T01:03:08;0.08;;;0.08;;
46875;SDS011;32866;50.160;14.768;2023-08-07T01:05:37;0.10;;;0.10;;
46875;SDS011;32866;50.160;14.768;2023-08-07T01:08:03;0.10;;;0.10;;
46875;SDS011;32866;50.160;14.768;2023-08-07T01:10:45;0.45;;;0.40;;
46875;SDS011;32866;50.160;14.768;2023-08-07T01:13:34;0.40;;;0.20;;
46875;SDS011;32866;50.160;14.768;2023-08-07T01:16:14;0.22;;;0.20;;
46875;SDS011;32866;50.160;14.768;2023-08-07T01:18:46;0.55;;;0.20;;
46875;SDS011;32866;50.160;14.768;2023-08-07T01:21:19;0.52;;;0.10;;
46875;SDS011;32866;50.160;14.768;2023-08-07T01:23:46;1.70;;;0.20;;
46875;SDS011;32866;50.160;14.768;2023-08-07T01:26:13;1.35;;;0.47;;
46875;SDS011;32866;50.160;14.768;2023-08-07T01:28:42;0.08;;;0.08;;
46875;SDS011;32866;50.160;14.768;2023-08-07T01:31:15;0.10;;;0.10;;
46875;SDS011;32866;50.160;14.768;2023-08-07T01:33:51;0.10;;;0.10;;
46875;SDS011;32866;50.160;14.768;2023-08-07T01:36:23;0.10;;;0.10;;
46875;SDS011;32866;50.160;14.768;2023-08-07T01:38:50;0.10;;;0.10;;
46875;SDS011;32866;50.160;14.768;2023-08-07T01:41:18;1.08;;;0.20;;
46875;SDS011;32866;50.160;14.768;2023-08-07T01:43:45;0.10;;;0.10;;
46875;SDS011;32866;50.160;14.768;2023-08-07T01:48:36;0.25;;;0.20;;
46875;SDS011;32866;50.160;14.768;2023-08-07T01:51:03;0.30;;;0.10;;
46875;SDS011;32866;50.160;14.768;2023-08-07T01:55:54;0.10;;;0.10;;
46875;SDS011;32866;50.160;14.768;2023-08-07T01:58:20;0.15;;;0.15;;
46875;SDS011;32866;50.160;14.768;2023-08-07T02:00:46;1.13;;;0.10;;
46875;SDS011;32866;50.160;14.768;2023-08-07T02:03:12;0.35;;;0.15;;
46875;SDS011;32866;50.160;14.768;2023-08-07T02:05:38;0.40;;;0.10;;
46875;SDS011;32866;50.160;14.768;2023-08-07T02:08:04;0.00;;;0.00;;
46875;SDS011;32866;50.160;14.768;2023-08-07T02:10:30;0.30;;;0.15;;
46875;SDS011;32866;50.160;14.768;2023-08-07T02:12:57;2.20;;;0.10;;
46875;SDS011;32866;50.160;14.768;2023-08-07T02:15:24;0.20;;;0.10;;
46875;SDS011;32866;50.160;14.768;2023-08-07T02:17:50;0.93;;;0.30;;
46875;SDS011;32866;50.160;14.768;2023-08-07T02:20:16;0.47;;;0.30;;
46875;SDS011;32866;50.160;14.768;2023-08-07T02:25:08;5.00;;;1.50;;
46875;SDS011;32866;50.160;14.768;2023-08-07T02:27:34;0.40;;;0.10;;
46875;SDS011;32866;50.160;14.768;2023-08-07T02:30:00;1.55;;;0.20;;
46875;SDS011;32866;50.160;14.768;2023-08-07T02:32:29;0.10;;;0.08;;
46875;SDS011;32866;50.160;14.768;2023-08-07T02:34:55;1.05;;;0.08;;
46875;SDS011;32866;50.160;14.768;2023-08-07T02:37:21;0.50;;;0.28;;
46875;SDS011;32866;50.160;14.768;2023-08-07T02:39:47;0.65;;;0.40;;
46875;SDS011;32866;50.160;14.768;2023-08-07T02:42:13;2.25;;;0.20;;
46875;SDS011;32866;50.160;14.768;2023-08-07T02:44:39;0.20;;;0.20;;
46875;SDS011;32866;50.160;14.768;2023-08-07T02:49:31;0.55;;;0.10;;
46875;SDS011;32866;50.160;14.768;2023-08-07T02:51:57;1.10;;;0.10;;
46875;SDS011;32866;50.160;14.768;2023-08-07T02:56:49;0.63;;;0.38;;
46875;SDS011;32866;50.160;14.768;2023-08-07T03:01:42;0.08;;;0.05;;
46875;SDS011;32866;50.160;14.768;2023-08-07T03:04:09;0.45;;;0.20;;
46875;SDS011;32866;50.160;14.768;2023-08-07T03:06:35;1.00;;;0.20;;
46875;SDS011;32866;50.160;14.768;2023-08-07T03:10:59;0.20;;;0.20;;
46875;SDS011;32866;50.160;14.768;2023-08-07T03:15:58;0.65;;;0.30;;
46875;SDS011;32866;50.160;14.768;2023-08-07T03:18:25;0.17;;;0.17;;
46875;SDS011;32866;50.160;14.768;2023-08-07T03:20:51;1.90;;;0.10;;
46875;SDS011;32866;50.160;14.768;2023-08-07T03:23:17;0.57;;;0.30;;
46875;SDS011;32866;50.160;14.768;2023-08-07T03:25:43;0.15;;;0.15;;
46875;SDS011;32866;50.160;14.768;2023-08-07T03:28:09;0.77;;;0.40;;
46875;SDS011;32866;50.160;14.768;2023-08-07T03:30:35;1.73;;;0.22;;
46875;SDS011;32866;50.160;14.768;2023-08-07T03:35:27;0.80;;;0.38;;
46875;SDS011;32866;50.160;14.768;2023-08-07T03:37:52;2.30;;;0.30;;
46875;SDS011;32866;50.160;14.768;2023-08-07T03:40:18;1.02;;;0.30;;
46875;SDS011;32866;50.160;14.768;2023-08-07T03:42:44;0.32;;;0.20;;
46875;SDS011;32866;50.160;14.768;2023-08-07T03:45:10;2.63;;;0.30;;
46875;SDS011;32866;50.160;14.768;2023-08-07T03:47:36;1.40;;;0.32;;
46875;SDS011;32866;50.160;14.768;2023-08-07T03:50:03;1.67;;;0.50;;
46875;SDS011;32866;50.160;14.768;2023-08-07T03:52:29;1.60;;;0.32;;
46875;SDS011;32866;50.160;14.768;2023-08-07T03:54:55;3.20;;;0.28;;
46875;SDS011;32866;50.160;14.768;2023-08-07T03:57:21;0.40;;;0.30;;
46875;SDS011;32866;50.160;14.768;2023-08-07T04:02:12;4.40;;;0.38;;
46875;SDS011;32866;50.160;14.768;2023-08-07T04:04:38;1.48;;;0.35;;
46875;SDS011;32866;50.160;14.768;2023-08-07T04:07:04;5.95;;;0.40;;
46875;SDS011;32866;50.160;14.768;2023-08-07T04:09:31;1.00;;;0.52;;
46875;SDS011;32866;50.160;14.768;2023-08-07T04:11:57;3.53;;;0.30;;
46875;SDS011;32866;50.160;14.768;2023-08-07T04:14:23;0.38;;;0.38;;
46875;SDS011;32866;50.160;14.768;2023-08-07T04:16:49;1.02;;;0.40;;
46875;SDS011;32866;50.160;14.768;2023-08-07T04:19:15;0.77;;;0.30;;
46875;SDS011;32866;50.160;14.768;2023-08-07T04:21:41;0.20;;;0.20;;
46875;SDS011;32866;50.160;14.768;2023-08-07T04:24:07;0.75;;;0.30;;
46875;SDS011;32866;50.160;14.768;2023-08-07T04:26:39;0.32;;;0.32;;
46875;SDS011;32866;50.160;14.768;2023-08-07T04:29:05;1.85;;;0.50;;
46875;SDS011;32866;50.160;14.768;2023-08-07T04:33:57;1.00;;;0.28;;
46875;SDS011;32866;50.160;14.768;2023-08-07T04:36:23;1.73;;;0.70;;
46875;SDS011;32866;50.160;14.768;2023-08-07T04:41:16;0.93;;;0.40;;
46875;SDS011;32866;50.160;14.768;2023-08-07T04:43:42;0.63;;;0.30;;
46875;SDS011;32866;50.160;14.768;2023-08-07T04:46:08;0.30;;;0.30;;
46875;SDS011;32866;50.160;14.768;2023-08-07T04:48:35;0.35;;;0.20;;
46875;SDS011;32866;50.160;14.768;2023-08-07T04:51:02;1.45;;;0.38;;
46875;SDS011;32866;50.160;14.768;2023-08-07T04:53:28;0.38;;;0.30;;
46875;SDS011;32866;50.160;14.768;2023-08-07T04:55:54;1.30;;;0.35;;
46875;SDS011;32866;50.160;14.768;2023-08-07T04:58:20;1.88;;;0.50;;
46875;SDS011;32866;50.160;14.768;2023-08-07T05:00:46;1.15;;;0.30;;
46875;SDS011;32866;50.160;14.768;2023-08-07T05:03:12;3.95;;;0.50;;
46875;SDS011;32866;50.160;14.768;2023-08-07T05:08:04;1.95;;;0.38;;
46875;SDS011;32866;50.160;14.768;2023-08-07T05:10:30;0.70;;;0.30;;
46875;SDS011;32866;50.160;14.768;2023-08-07T05:12:56;0.70;;;0.55;;
46875;SDS011;32866;50.160;14.768;2023-08-07T05:17:50;0.40;;;0.30;;
46875;SDS011;32866;50.160;14.768;2023-08-07T05:20:16;0.38;;;0.38;;
46875;SDS011;32866;50.160;14.768;2023-08-07T05:25:09;0.30;;;0.20;;
46875;SDS011;32866;50.160;14.768;2023-08-07T05:27:37;0.75;;;0.35;;
46875;SDS011;32866;50.160;14.768;2023-08-07T05:30:03;0.30;;;0.30;;
46875;SDS011;32866;50.160;14.768;2023-08-07T05:32:30;0.47;;;0.30;;
46875;SDS011;32866;50.160;14.768;2023-08-07T05:34:58;0.68;;;0.22;;
46875;SDS011;32866;50.160;14.768;2023-08-07T05:37:24;0.75;;;0.43;;
46875;SDS011;32866;50.160;14.768;2023-08-07T05:39:50;0.80;;;0.47;;
46875;SDS011;32866;50.160;14.768;2023-08-07T05:42:16;0.20;;;0.20;;
46875;SDS011;32866;50.160;14.768;2023-08-07T05:44:42;1.25;;;0.90;;
46875;SDS011;32866;50.160;14.768;2023-08-07T05:47:08;1.35;;;0.40;;
46875;SDS011;32866;50.160;14.768;2023-08-07T05:49:34;0.50;;;0.40;;
46875;SDS011;32866;50.160;14.768;2023-08-07T05:54:26;1.00;;;0.60;;
46875;SDS011;32866;50.160;14.768;2023-08-07T05:59:18;0.47;;;0.47;;
46875;SDS011;32866;50.160;14.768;2023-08-07T06:01:44;0.77;;;0.57;;
46875;SDS011;32866;50.160;14.768;2023-08-07T06:04:10;1.50;;;1.10;;
46875;SDS011;32866;50.160;14.768;2023-08-07T06:06:36;1.17;;;0.70;;
46875;SDS011;32866;50.160;14.768;2023-08-07T06:09:02;3.60;;;0.98;;
46875;SDS011;32866;50.160;14.768;2023-08-07T06:11:29;1.08;;;0.57;;
46875;SDS011;32866;50.160;14.768;2023-08-07T06:13:55;1.35;;;0.75;;
46875;SDS011;32866;50.160;14.768;2023-08-07T06:16:21;0.98;;;0.98;;
46875;SDS011;32866;50.160;14.768;2023-08-07T06:18:47;0.43;;;0.43;;
46875;SDS011;32866;50.160;14.768;2023-08-07T06:21:13;2.72;;;0.70;;
46875;SDS011;32866;50.160;14.768;2023-08-07T06:23:39;2.55;;;0.73;;
46875;SDS011;32866;50.160;14.768;2023-08-07T06:26:05;4.93;;;0.90;;
46875;SDS011;32866;50.160;14.768;2023-08-07T06:28:33;1.70;;;0.88;;
46875;SDS011;32866;50.160;14.768;2023-08-07T06:31:02;1.95;;;0.80;;
46875;SDS011;32866;50.160;14.768;2023-08-07T06:33:33;1.67;;;0.60;;
46875;SDS011;32866;50.160;14.768;2023-08-07T06:38:25;1.25;;;0.63;;
46875;SDS011;32866;50.160;14.768;2023-08-07T06:40:51;1.50;;;0.70;;
46875;SDS011;32866;50.160;14.768;2023-08-07T06:43:17;1.70;;;0.65;;
46875;SDS011;32866;50.160;14.768;2023-08-07T06:45:43;0.95;;;0.80;;
46875;SDS011;32866;50.160;14.768;2023-08-07T06:48:12;1.95;;;0.65;;
46875;SDS011;32866;50.160;14.768;2023-08-07T06:50:38;2.15;;;0.80;;
46875;SDS011;32866;50.160;14.768;2023-08-07T06:53:04;1.30;;;0.90;;
46875;SDS011;32866;50.160;14.768;2023-08-07T06:55:30;3.22;;;1.25;;
46875;SDS011;32866;50.160;14.768;2023-08-07T06:57:56;1.67;;;0.80;;
46875;SDS011;32866;50.160;14.768;2023-08-07T07:00:22;1.10;;;1.00;;
46875;SDS011;32866;50.160;14.768;2023-08-07T07:02:48;2.00;;;0.85;;
46875;SDS011;32866;50.160;14.768;2023-08-07T07:07:39;0.82;;;0.82;;
46875;SDS011;32866;50.160;14.768;2023-08-07T07:10:05;1.48;;;0.90;;
46875;SDS011;32866;50.160;14.768;2023-08-07T07:12:32;2.05;;;1.10;;
46875;SDS011;32866;50.160;14.768;2023-08-07T07:14:58;1.95;;;1.00;;
46875;SDS011;32866;50.160;14.768;2023-08-07T07:17:24;4.10;;;1.30;;
46875;SDS011;32866;50.160;14.768;2023-08-07T07:19:50;1.48;;;0.95;;
46875;SDS011;32866;50.160;14.768;2023-08-07T07:22:16;1.45;;;0.80;;
46875;SDS011;32866;50.160;14.768;2023-08-07T07:24:42;1.02;;;0.90;;
46875;SDS011;32866;50.160;14.768;2023-08-07T07:29:33;1.90;;;1.20;;
46875;SDS011;32866;50.160;14.768;2023-08-07T07:34:25;0.95;;;0.85;;
46875;SDS011;32866;50.160;14.768;2023-08-07T07:39:19;2.08;;;1.70;;
46875;SDS011;32866;50.160;14.768;2023-08-07T07:41:45;2.88;;;1.25;;
46875;SDS011;32866;50.160;14.768;2023-08-07T07:44:11;3.05;;;1.42;;
46875;SDS011;32866;50.160;14.768;2023-08-07T07:46:38;3.50;;;1.70;;
46875;SDS011;32866;50.160;14.768;2023-08-07T07:49:04;3.72;;;1.73;;
46875;SDS011;32866;50.160;14.768;2023-08-07T07:53:57;3.40;;;1.75;;
46875;SDS011;32866;50.160;14.768;2023-08-07T07:56:24;1.83;;;1.42;;
46875;SDS011;32866;50.160;14.768;2023-08-07T07:58:50;4.95;;;2.28;;
46875;SDS011;32866;50.160;14.768;2023-08-07T08:03:43;3.70;;;1.95;;
46875;SDS011;32866;50.160;14.768;2023-08-07T08:08:39;3.05;;;2.55;;
46875;SDS011;32866;50.160;14.768;2023-08-07T08:13:30;3.67;;;2.25;;
46875;SDS011;32866;50.160;14.768;2023-08-07T08:15:56;3.03;;;2.35;;
46875;SDS011;32866;50.160;14.768;2023-08-07T08:18:23;5.57;;;2.45;;
46875;SDS011;32866;50.160;14.768;2023-08-07T08:20:49;3.50;;;2.40;;
46875;SDS011;32866;50.160;14.768;2023-08-07T08:23:15;2.63;;;2.40;;
46875;SDS011;32866;50.160;14.768;2023-08-07T08:25:41;4.78;;;2.20;;
46875;SDS011;32866;50.160;14.768;2023-08-07T08:28:07;2.70;;;2.08;;
46875;SDS011;32866;50.160;14.768;2023-08-07T08:30:33;4.65;;;2.47;;
46875;SDS011;32866;50.160;14.768;2023-08-07T08:32:59;3.15;;;2.38;;
46875;SDS011;32866;50.160;14.768;2023-08-07T08:37:51;4.97;;;2.80;;
46875;SDS011;32866;50.160;14.768;2023-08-07T08:42:44;3.85;;;2.40;;
46875;SDS011;32866;50.160;14.768;2023-08-07T08:45:12;3.35;;;2.15;;
46875;SDS011;32866;50.160;14.768;2023-08-07T08:47:39;3.25;;;2.28;;
46875;SDS011;32866;50.160;14.768;2023-08-07T08:50:09;2.53;;;1.80;;
46875;SDS011;32866;50.160;14.768;2023-08-07T08:52:42;2.70;;;2.13;;
46875;SDS011;32866;50.160;14.768;2023-08-07T08:55:10;3.78;;;2.28;;
46875;SDS011;32866;50.160;14.768;2023-08-07T08:57:37;2.75;;;2.33;;
46875;SDS011;32866;50.160;14.768;2023-08-07T09:00:05;2.67;;;2.03;;
46875;SDS011;32866;50.160;14.768;2023-08-07T09:02:41;4.38;;;1.98;;
46875;SDS011;32866;50.160;14.768;2023-08-07T09:05:08;2.30;;;1.63;;
46875;SDS011;32866;50.160;14.768;2023-08-07T09:07:35;1.70;;;1.50;;
46875;SDS011;32866;50.160;14.768;2023-08-07T09:10:02;1.77;;;1.40;;
46875;SDS011;32866;50.160;14.768;2023-08-07T09:12:29;2.47;;;1.30;;
46875;SDS011;32866;50.160;14.768;2023-08-07T09:14:57;4.15;;;1.92;;
46875;SDS011;32866;50.160;14.768;2023-08-07T09:17:24;1.65;;;1.40;;
46875;SDS011;32866;50.160;14.768;2023-08-07T09:19:53;3.05;;;1.20;;
46875;SDS011;32866;50.160;14.768;2023-08-07T09:24:45;1.73;;;1.60;;
46875;SDS011;32866;50.160;14.768;2023-08-07T09:27:12;1.58;;;1.38;;
46875;SDS011;32866;50.160;14.768;2023-08-07T09:29:39;4.10;;;1.92;;
46875;SDS011;32866;50.160;14.768;2023-08-07T09:34:42;4.35;;;1.02;;
46875;SDS011;32866;50.160;14.768;2023-08-07T09:37:08;1.00;;;1.00;;
46875;SDS011;32866;50.160;14.768;2023-08-07T09:39:35;2.50;;;1.42;;
46875;SDS011;32866;50.160;14.768;2023-08-07T09:42:05;1.08;;;1.00;;
46875;SDS011;32866;50.160;14.768;2023-08-07T09:44:39;2.38;;;1.30;;
46875;SDS011;32866;50.160;14.768;2023-08-07T09:49:38;1.38;;;1.20;;
46875;SDS011;32866;50.160;14.768;2023-08-07T09:54:33;3.38;;;1.13;;
46875;SDS011;32866;50.160;14.768;2023-08-07T09:56:59;1.20;;;1.10;;
46875;SDS011;32866;50.160;14.768;2023-08-07T09:59:27;0.90;;;0.80;;
46875;SDS011;32866;50.160;14.768;2023-08-07T10:01:54;1.50;;;0.90;;
46875;SDS011;32866;50.160;14.768;2023-08-07T10:04:21;2.85;;;1.20;;
46875;SDS011;32866;50.160;14.768;2023-08-07T10:06:48;1.13;;;0.88;;
46875;SDS011;32866;50.160;14.768;2023-08-07T10:09:15;1.35;;;1.00;;
46875;SDS011;32866;50.160;14.768;2023-08-07T10:11:41;3.83;;;1.13;;
46875;SDS011;32866;50.160;14.768;2023-08-07T10:14:08;1.30;;;1.05;;
46875;SDS011;32866;50.160;14.768;2023-08-07T10:16:34;1.92;;;0.90;;
46875;SDS011;32866;50.160;14.768;2023-08-07T10:19:05;1.38;;;0.80;;
46875;SDS011;32866;50.160;14.768;2023-08-07T10:21:33;2.35;;;1.10;;
46875;SDS011;32866;50.160;14.768;2023-08-07T10:24:02;2.17;;;0.98;;
46875;SDS011;32866;50.160;14.768;2023-08-07T10:26:30;1.15;;;1.05;;
46875;SDS011;32866;50.160;14.768;2023-08-07T10:28:58;1.50;;;1.13;;
46875;SDS011;32866;50.160;14.768;2023-08-07T10:31:28;9.88;;;1.30;;
46875;SDS011;32866;50.160;14.768;2023-08-07T10:33:55;1.75;;;1.00;;
46875;SDS011;32866;50.160;14.768;2023-08-07T10:36:21;1.35;;;0.80;;
46875;SDS011;32866;50.160;14.768;2023-08-07T10:38:51;1.55;;;0.93;;
46875;SDS011;32866;50.160;14.768;2023-08-07T10:41:37;2.95;;;1.00;;
46875;SDS011;32866;50.160;14.768;2023-08-07T10:44:04;0.70;;;0.70;;
46875;SDS011;32866;50.160;14.768;2023-08-07T10:46:44;0.75;;;0.65;;
46875;SDS011;32866;50.160;14.768;2023-08-07T10:49:15;2.95;;;0.65;;
46875;SDS011;32866;50.160;14.768;2023-08-07T10:51:57;1.42;;;0.80;;
46875;SDS011;32866;50.160;14.768;2023-08-07T10:54:23;1.70;;;0.88;;
46875;SDS011;32866;50.160;14.768;2023-08-07T10:56:53;0.63;;;0.60;;
46875;SDS011;32866;50.160;14.768;2023-08-07T10:59:22;0.90;;;0.70;;
46875;SDS011;32866;50.160;14.768;2023-08-07T11:01:53;0.68;;;0.68;;
46875;SDS011;32866;50.160;14.768;2023-08-07T11:04:21;1.95;;;0.82;;
46875;SDS011;32866;50.160;14.768;2023-08-07T11:06:50;3.47;;;0.93;;
46875;SDS011;32866;50.160;14.768;2023-08-07T11:09:17;2.97;;;1.10;;
46875;SDS011;32866;50.160;14.768;2023-08-07T11:14:13;2.28;;;1.00;;
46875;SDS011;32866;50.160;14.768;2023-08-07T11:16:40;3.08;;;1.02;;
46875;SDS011;32866;50.160;14.768;2023-08-07T11:19:08;0.80;;;0.80;;
46875;SDS011;32866;50.160;14.768;2023-08-07T11:21:34;4.97;;;1.20;;
46875;SDS011;32866;50.160;14.768;2023-08-07T11:24:01;1.67;;;0.85;;
46875;SDS011;32866;50.160;14.768;2023-08-07T11:26:27;2.10;;;0.80;;
46875;SDS011;32866;50.160;14.768;2023-08-07T11:28:54;0.70;;;0.60;;
46875;SDS011;32866;50.160;14.768;2023-08-07T11:31:21;1.25;;;0.80;;
46875;SDS011;32866;50.160;14.768;2023-08-07T11:33:54;0.50;;;0.50;;
46875;SDS011;32866;50.160;14.768;2023-08-07T11:36:21;2.00;;;0.95;;
46875;SDS011;32866;50.160;14.768;2023-08-07T11:38:47;0.98;;;0.75;;
46875;SDS011;32866;50.160;14.768;2023-08-07T11:43:40;2.63;;;0.80;;
46875;SDS011;32866;50.160;14.768;2023-08-07T11:46:07;1.95;;;1.35;;
46875;SDS011;32866;50.160;14.768;2023-08-07T11:48:36;1.65;;;1.08;;
46875;SDS011;32866;50.160;14.768;2023-08-07T11:51:03;2.10;;;1.05;;
46875;SDS011;32866;50.160;14.768;2023-08-07T11:53:39;1.38;;;1.27;;
46875;SDS011;32866;50.160;14.768;2023-08-07T11:56:07;1.88;;;0.90;;
46875;SDS011;32866;50.160;14.768;2023-08-07T11:58:40;0.98;;;0.90;;
46875;SDS011;32866;50.160;14.768;2023-08-07T12:01:11;3.80;;;1.55;;
46875;SDS011;32866;50.160;14.768;2023-08-07T12:03:41;2.72;;;1.10;;
46875;SDS011;32866;50.160;14.768;2023-08-07T12:06:09;7.82;;;0.98;;
46875;SDS011;32866;50.160;14.768;2023-08-07T12:08:36;2.60;;;1.08;;
46875;SDS011;32866;50.160;14.768;2023-08-07T12:11:06;4.38;;;1.13;;
46875;SDS011;32866;50.160;14.768;2023-08-07T12:13:36;3.80;;;0.80;;
46875;SDS011;32866;50.160;14.768;2023-08-07T12:16:03;3.95;;;0.90;;
46875;SDS011;32866;50.160;14.768;2023-08-07T12:18:30;1.33;;;0.80;;
46875;SDS011;32866;50.160;14.768;2023-08-07T12:20:57;2.03;;;0.68;;
46875;SDS011;32866;50.160;14.768;2023-08-07T12:23:34;1.63;;;0.55;;
46875;SDS011;32866;50.160;14.768;2023-08-07T12:26:02;0.60;;;0.60;;
46875;SDS011;32866;50.160;14.768;2023-08-07T12:28:31;0.85;;;0.60;;
46875;SDS011;32866;50.160;14.768;2023-08-07T12:33:23;0.95;;;0.90;;
46875;SDS011;32866;50.160;14.768;2023-08-07T12:38:15;0.82;;;0.77;;
46875;SDS011;32866;50.160;14.768;2023-08-07T12:40:42;0.85;;;0.85;;
46875;SDS011;32866;50.160;14.768;2023-08-07T12:43:08;4.13;;;0.98;;
46875;SDS011;32866;50.160;14.768;2023-08-07T12:48:00;1.05;;;0.90;;
46875;SDS011;32866;50.160;14.768;2023-08-07T12:50:27;0.73;;;0.73;;
46875;SDS011;32866;50.160;14.768;2023-08-07T12:52:54;0.63;;;0.63;;
46875;SDS011;32866;50.160;14.768;2023-08-07T12:55:20;0.85;;;0.85;;
46875;SDS011;32866;50.160;14.768;2023-08-07T12:57:46;1.60;;;1.17;;
46875;SDS011;32866;50.160;14.768;2023-08-07T13:00:14;0.85;;;0.85;;
46875;SDS011;32866;50.160;14.768;2023-08-07T13:02:41;3.08;;;1.30;;
46875;SDS011;32866;50.160;14.768;2023-08-07T13:05:08;1.95;;;0.90;;
46875;SDS011;32866;50.160;14.768;2023-08-07T13:07:35;4.07;;;0.80;;
46875;SDS011;32866;50.160;14.768;2023-08-07T13:10:01;2.50;;;0.77;;
46875;SDS011;32866;50.160;14.768;2023-08-07T13:12:27;0.65;;;0.63;;
46875;SDS011;32866;50.160;14.768;2023-08-07T13:17:19;1.05;;;0.80;;
46875;SDS011;32866;50.160;14.768;2023-08-07T13:22:10;0.80;;;0.70;;
46875;SDS011;32866;50.160;14.768;2023-08-07T13:27:02;0.95;;;0.60;;
46875;SDS011;32866;50.160;14.768;2023-08-07T13:29:30;0.40;;;0.40;;
46875;SDS011;32866;50.160;14.768;2023-08-07T13:31:56;1.38;;;0.52;;
46875;SDS011;32866;50.160;14.768;2023-08-07T13:36:47;1.70;;;0.80;;
46875;SDS011;32866;50.160;14.768;2023-08-07T13:41:39;0.60;;;0.60;;
46875;SDS011;32866;50.160;14.768;2023-08-07T13:46:31;0.63;;;0.47;;
46875;SDS011;32866;50.160;14.768;2023-08-07T13:51:23;2.75;;;0.73;;
46875;SDS011;32866;50.160;14.768;2023-08-07T13:53:49;0.50;;;0.50;;
46875;SDS011;32866;50.160;14.768;2023-08-07T13:56:17;2.97;;;0.75;;
46875;SDS011;32866;50.160;14.768;2023-08-07T14:01:09;3.60;;;0.85;;
46875;SDS011;32866;50.160;14.768;2023-08-07T14:06:01;0.65;;;0.60;;
46875;SDS011;32866;50.160;14.768;2023-08-07T14:08:27;0.88;;;0.55;;
46875;SDS011;32866;50.160;14.768;2023-08-07T14:10:54;0.88;;;0.55;;
46875;SDS011;32866;50.160;14.768;2023-08-07T14:13:20;0.50;;;0.50;;
46875;SDS011;32866;50.160;14.768;2023-08-07T14:18:12;0.70;;;0.45;;
46875;SDS011;32866;50.160;14.768;2023-08-07T14:20:40;0.55;;;0.55;;
46875;SDS011;32866;50.160;14.768;2023-08-07T14:25:32;0.57;;;0.57;;
46875;SDS011;32866;50.160;14.768;2023-08-07T14:30:24;0.60;;;0.50;;
46875;SDS011;32866;50.160;14.768;2023-08-07T14:35:16;1.27;;;0.75;;
46875;SDS011;32866;50.160;14.768;2023-08-07T14:40:08;4.78;;;1.05;;
46875;SDS011;32866;50.160;14.768;2023-08-07T14:42:34;0.95;;;0.73;;
46875;SDS011;32866;50.160;14.768;2023-08-07T14:45:00;0.32;;;0.30;;
46875;SDS011;32866;50.160;14.768;2023-08-07T14:49:52;0.85;;;0.50;;
46875;SDS011;32866;50.160;14.768;2023-08-07T14:54:44;1.27;;;0.40;;
46875;SDS011;32866;50.160;14.768;2023-08-07T14:59:35;2.30;;;0.60;;
46875;SDS011;32866;50.160;14.768;2023-08-07T15:04:27;2.70;;;0.60;;
46875;SDS011;32866;50.160;14.768;2023-08-07T15:09:19;0.45;;;0.40;;
46875;SDS011;32866;50.160;14.768;2023-08-07T15:14:12;3.47;;;0.85;;
46875;SDS011;32866;50.160;14.768;2023-08-07T15:16:38;0.90;;;0.63;;
46875;SDS011;32866;50.160;14.768;2023-08-07T15:19:04;0.47;;;0.40;;
46875;SDS011;32866;50.160;14.768;2023-08-07T15:23:56;0.52;;;0.50;;
46875;SDS011;32866;50.160;14.768;2023-08-07T15:26:22;1.13;;;0.63;;
46875;SDS011;32866;50.160;14.768;2023-08-07T15:31:14;0.82;;;0.30;;
46875;SDS011;32866;50.160;14.768;2023-08-07T15:36:07;1.05;;;0.55;;
46875;SDS011;32866;50.160;14.768;2023-08-07T15:41:01;6.28;;;0.73;;
46875;SDS011;32866;50.160;14.768;2023-08-07T15:43:27;2.42;;;0.40;;
46875;SDS011;32866;50.160;14.768;2023-08-07T15:45:54;0.38;;;0.35;;
46875;SDS011;32866;50.160;14.768;2023-08-07T15:50:46;0.93;;;0.52;;
46875;SDS011;32866;50.160;14.768;2023-08-07T15:55:37;0.68;;;0.65;;
46875;SDS011;32866;50.160;14.768;2023-08-07T16:00:31;1.08;;;0.80;;
46875;SDS011;32866;50.160;14.768;2023-08-07T16:03:06;2.25;;;0.85;;
46875;SDS011;32866;50.160;14.768;2023-08-07T16:05:37;0.47;;;0.43;;
46875;SDS011;32866;50.160;14.768;2023-08-07T16:08:04;1.55;;;0.60;;
46875;SDS011;32866;50.160;14.768;2023-08-07T16:10:31;0.73;;;0.57;;
46875;SDS011;32866;50.160;14.768;2023-08-07T16:12:58;1.17;;;0.93;;
46875;SDS011;32866;50.160;14.768;2023-08-07T16:15:25;0.52;;;0.50;;
46875;SDS011;32866;50.160;14.768;2023-08-07T16:17:51;0.70;;;0.50;;
46875;SDS011;32866;50.160;14.768;2023-08-07T16:20:18;0.50;;;0.50;;
46875;SDS011;32866;50.160;14.768;2023-08-07T16:22:45;0.45;;;0.45;;
46875;SDS011;32866;50.160;14.768;2023-08-07T16:25:11;0.50;;;0.50;;
46875;SDS011;32866;50.160;14.768;2023-08-07T16:27:38;2.05;;;0.60;;
46875;SDS011;32866;50.160;14.768;2023-08-07T16:30:04;1.10;;;0.68;;
46875;SDS011;32866;50.160;14.768;2023-08-07T16:32:37;0.70;;;0.70;;
46875;SDS011;32866;50.160;14.768;2023-08-07T16:35:04;0.65;;;0.65;;
46875;SDS011;32866;50.160;14.768;2023-08-07T16:37:31;0.52;;;0.52;;
46875;SDS011;32866;50.160;14.768;2023-08-07T16:39:57;2.40;;;0.73;;
46875;SDS011;32866;50.160;14.768;2023-08-07T16:42:24;0.55;;;0.55;;
46875;SDS011;32866;50.160;14.768;2023-08-07T16:44:50;2.88;;;0.82;;
46875;SDS011;32866;50.160;14.768;2023-08-07T16:47:16;0.60;;;0.60;;
46875;SDS011;32866;50.160;14.768;2023-08-07T16:52:09;1.23;;;1.00;;
46875;SDS011;32866;50.160;14.768;2023-08-07T16:54:35;3.00;;;0.80;;
46875;SDS011;32866;50.160;14.768;2023-08-07T16:59:28;0.82;;;0.82;;
46875;SDS011;32866;50.160;14.768;2023-08-07T17:01:55;2.72;;;0.63;;
46875;SDS011;32866;50.160;14.768;2023-08-07T17:04:21;1.65;;;0.68;;
46875;SDS011;32866;50.160;14.768;2023-08-07T17:06:47;1.63;;;0.90;;
46875;SDS011;32866;50.160;14.768;2023-08-07T17:11:40;0.52;;;0.52;;
46875;SDS011;32866;50.160;14.768;2023-08-07T17:14:05;1.05;;;0.60;;
46875;SDS011;32866;50.160;14.768;2023-08-07T17:18:57;3.03;;;0.85;;
46875;SDS011;32866;50.160;14.768;2023-08-07T17:21:25;0.73;;;0.63;;
46875;SDS011;32866;50.160;14.768;2023-08-07T17:26:17;1.00;;;0.82;;
46875;SDS011;32866;50.160;14.768;2023-08-07T17:31:08;0.50;;;0.50;;
46875;SDS011;32866;50.160;14.768;2023-08-07T17:36:00;0.85;;;0.70;;